Time;durP1;ratioP1;P1;durP2;ratioP2;P2;SDS_P1;SDS_P2;PMS_P1;PMS_P2;Temp;Humidity;BMP_temperature;BMP_pressure;BME280_temperature;BME280_humidity;BME280_pressure;Samples;Min_cycle;Max_cycle;Signal;HPM_P1;HPM_P2
2024/03/20 00:01:09;;;;;;;0.80;0.80;;;;;;;5.18;100.00;98811.03;6165492;23;20014;-90
2024/03/20 00:03:34;;;;;;;0.70;0.70;;;;;;;5.14;100.00;98815.25;6156506;23;20013;-89
2024/03/20 00:06:00;;;;;;;0.80;0.80;;;;;;;5.13;100.00;98813.47;6127740;23;20009;-90
2024/03/20 00:08:29;;;;;;;0.70;0.70;;;;;;;5.01;100.00;98815.44;6128957;23;20017;-91
2024/03/20 00:10:55;;;;;;;0.80;0.80;;;;;;;4.94;100.00;98808.03;6128376;23;20009;-91
2024/03/20 00:13:22;;;;;;;0.73;0.73;;;;;;;4.93;100.00;98814.13;6126507;23;20013;-90
2024/03/20 00:15:48;;;;;;;0.80;0.80;;;;;;;4.82;100.00;98806.56;6128336;23;20098;-90
2024/03/20 00:18:14;;;;;;;0.77;0.77;;;;;;;4.76;100.00;98800.94;6154263;23;20097;-91
2024/03/20 00:20:40;;;;;;;0.80;0.80;;;;;;;4.64;100.00;98811.75;6129637;23;20036;-91
2024/03/20 00:23:07;;;;;;;0.80;0.80;;;;;;;4.77;100.00;98800.13;6128321;23;20021;-92
2024/03/20 00:25:33;;;;;;;0.70;0.70;;;;;;;4.71;100.00;98798.91;6128150;23;20099;-91
2024/03/20 00:27:59;;;;;;;0.80;0.80;;;;;;;4.69;100.00;98806.72;6127737;23;20020;-90
2024/03/20 00:30:24;;;;;;;0.80;0.80;;;;;;;4.54;100.00;98801.53;6151979;23;20040;-91
2024/03/20 00:32:50;;;;;;;0.80;0.80;;;;;;;4.44;100.00;98804.50;6127504;23;20041;-90
2024/03/20 00:35:16;;;;;;;0.90;0.90;;;;;;;4.33;100.00;98795.09;6153969;23;20011;-90
2024/03/20 00:37:41;;;;;;;0.80;0.80;;;;;;;4.21;100.00;98800.59;6127894;23;20080;-91
2024/03/20 00:40:08;;;;;;;0.80;0.80;;;;;;;4.19;100.00;98796.06;6153187;23;20037;-91
2024/03/20 00:42:34;;;;;;;;;;;;;;;4.31;100.00;98797.66;6153602;23;20063;-91
2024/03/20 00:45:00;;;;;;;0.90;0.90;;;;;;;4.01;100.00;98791.59;6152532;23;19916;-91
2024/03/20 00:47:25;;;;;;;0.90;0.90;;;;;;;4.11;100.00;98793.91;6128221;23;20010;-91
2024/03/20 00:49:51;;;;;;;0.90;0.90;;;;;;;4.06;100.00;98790.09;6127420;23;20009;-90
2024/03/20 00:52:16;;;;;;;0.80;0.80;;;;;;;4.14;100.00;98785.25;6152516;23;20007;-91
2024/03/20 00:54:45;;;;;;;0.80;0.80;;;;;;;4.11;100.00;98793.00;6152175;23;20013;-91
2024/03/20 00:57:11;;;;;;;0.90;0.90;;;;;;;4.11;100.00;98782.44;6152705;23;20085;-91
2024/03/20 00:59:37;;;;;;;0.90;0.90;;;;;;;3.86;100.00;98783.72;6127175;23;20048;-90
2024/03/20 01:02:02;;;;;;;0.90;0.90;;;;;;;3.91;100.00;98783.09;6127761;23;20052;-90
2024/03/20 01:04:28;;;;;;;0.90;0.90;;;;;;;4.00;100.00;98778.31;6126541;23;20013;-90
2024/03/20 01:06:54;;;;;;;0.90;0.90;;;;;;;3.81;100.00;98777.28;6126161;23;20021;-90
2024/03/20 01:09:21;;;;;;;0.90;0.90;;;;;;;3.69;100.00;98773.97;6151529;23;20014;-90
2024/03/20 01:11:48;;;;;;;0.80;0.80;;;;;;;3.59;100.00;98774.25;6125147;23;20002;-91
2024/03/20 01:14:14;;;;;;;0.80;0.80;;;;;;;3.41;100.00;98778.50;6125231;23;20427;-91
2024/03/20 01:16:39;;;;;;;0.90;0.90;;;;;;;3.56;100.00;98774.09;6126538;23;20056;-91
2024/03/20 01:19:05;;;;;;;0.95;0.95;;;;;;;3.41;100.00;98771.50;6126043;23;20013;-91
2024/03/20 01:21:30;;;;;;;0.90;0.90;;;;;;;3.43;100.00;98767.19;6151723;23;20060;-91
2024/03/20 01:23:56;;;;;;;0.90;0.90;;;;;;;3.46;100.00;98764.75;6126762;23;20009;-90
2024/03/20 01:26:22;;;;;;;0.90;0.90;;;;;;;3.49;100.00;98767.53;6151749;23;20013;-91
2024/03/20 01:28:49;;;;;;;0.80;0.80;;;;;;;3.32;100.00;98763.94;6150400;23;20028;-91
2024/03/20 01:31:14;;;;;;;0.80;0.80;;;;;;;3.41;100.00;98767.94;6151304;23;20016;-91
2024/03/20 01:33:40;;;;;;;0.90;0.90;;;;;;;3.37;100.00;98772.13;6151172;23;20013;-91
2024/03/20 01:36:06;;;;;;;0.90;0.90;;;;;;;3.36;100.00;98766.78;6151121;23;20018;-91
2024/03/20 01:38:31;;;;;;;0.90;0.90;;;;;;;3.20;100.00;98765.84;6150115;23;20014;-91
2024/03/20 01:40:57;;;;;;;0.90;0.90;;;;;;;3.13;100.00;98760.16;6124057;23;20068;-91
2024/03/20 01:43:22;;;;;;;0.80;0.80;;;;;;;3.13;100.00;98760.16;6124073;23;20020;-92
2024/03/20 01:45:48;;;;;;;0.80;0.80;;;;;;;3.19;100.00;98761.41;6151570;23;20027;-92
2024/03/20 01:48:15;;;;;;;0.90;0.90;;;;;;;3.15;100.00;98759.41;6130142;23;20036;-91
2024/03/20 01:50:41;;;;;;;0.90;0.90;;;;;;;3.15;100.00;98754.16;6149766;23;20002;-89
2024/03/20 01:53:07;;;;;;;0.90;0.90;;;;;;;3.19;100.00;98760.50;6155248;23;20016;-91
2024/03/20 01:55:35;;;;;;;0.90;0.90;;;;;;;2.91;100.00;98757.97;6128114;23;20006;-90
2024/03/20 01:58:00;;;;;;;0.90;0.90;;;;;;;2.85;100.00;98762.88;6153441;23;20013;-90
2024/03/20 02:00:27;;;;;;;0.80;0.80;;;;;;;2.89;100.00;98764.91;6129383;23;20307;-90
2024/03/20 02:02:58;;;;;;;1.00;1.00;;;;;;;2.87;100.00;98759.50;6155708;23;20019;-90
2024/03/20 02:05:27;;;;;;;1.00;1.00;;;;;;;2.73;100.00;98765.69;6130896;23;20009;-89
2024/03/20 02:07:53;;;;;;;0.93;0.93;;;;;;;2.68;100.00;98757.50;6154757;23;20009;-91
2024/03/20 02:10:19;;;;;;;1.00;1.00;;;;;;;2.60;100.00;98760.53;6156301;23;20303;-91
2024/03/20 02:12:45;;;;;;;0.80;0.80;;;;;;;2.55;100.00;98763.78;6153972;23;20156;-90
2024/03/20 02:15:12;;;;;;;0.90;0.90;;;;;;;2.53;100.00;98764.47;6151913;23;20017;-90
2024/03/20 02:17:41;;;;;;;;;;;;;;;2.60;100.00;98761.41;6129227;23;20469;-91
2024/03/20 02:20:08;;;;;;;0.90;0.90;;;;;;;2.53;100.00;98764.47;6153798;23;20285;-91
2024/03/20 02:22:43;;;;;;;;;;;;;;;2.60;100.00;98758.78;6153782;23;20014;-92
2024/03/20 02:25:10;;;;;;;0.90;0.90;;;;;;;2.55;100.00;98765.50;6152999;23;19912;-93
2024/03/20 02:27:36;;;;;;;0.80;0.80;;;;;;;2.49;100.00;98773.00;6128800;23;20025;-91
2024/03/20 02:30:07;;;;;;;0.90;0.90;;;;;;;2.46;100.00;98768.47;6151020;23;20056;-91
2024/03/20 02:32:33;;;;;;;1.00;1.00;;;;;;;2.43;100.00;98767.38;6125744;23;20016;-90
2024/03/20 02:34:58;;;;;;;1.00;1.00;;;;;;;2.26;100.00;98769.00;6125905;23;20021;-89
2024/03/20 02:37:24;;;;;;;1.00;1.00;;;;;;;2.26;100.00;98769.00;6152378;23;20017;-91
2024/03/20 02:39:49;;;;;;;1.00;1.00;;;;;;;2.25;100.00;98762.81;6126545;23;20092;-90
2024/03/20 02:42:15;;;;;;;0.90;0.90;;;;;;;2.43;100.00;98764.75;6127153;23;20010;-90
2024/03/20 02:44:40;;;;;;;1.00;1.00;;;;;;;2.50;100.00;98764.31;6149807;23;20013;-92
2024/03/20 02:47:06;;;;;;;1.00;1.00;;;;;;;2.51;100.00;98760.88;6152025;23;20613;-90
2024/03/20 02:49:31;;;;;;;1.00;1.00;;;;;;;2.50;100.00;98753.78;6150851;23;20021;-91
2024/03/20 02:51:56;;;;;;;0.95;0.95;;;;;;;2.31;100.00;98757.91;6154681;23;20060;-91
2024/03/20 02:54:22;;;;;;;0.90;0.90;;;;;;;2.30;100.00;98756.13;6154240;23;20116;-91
2024/03/20 02:56:47;;;;;;;0.80;0.80;;;;;;;2.11;100.00;98758.41;6154081;23;20092;-91
2024/03/20 02:59:13;;;;;;;1.00;1.00;;;;;;;2.24;100.00;98766.25;6153132;23;20013;-90
2024/03/20 03:01:38;;;;;;;1.02;1.02;;;;;;;2.43;100.00;98765.66;6127350;23;20002;-90
2024/03/20 03:04:04;;;;;;;1.00;1.00;;;;;;;2.30;100.00;98758.75;6152380;23;20018;-89
2024/03/20 03:06:29;;;;;;;0.90;0.90;;;;;;;2.19;100.00;98757.16;6152438;23;20418;-89
2024/03/20 03:08:55;;;;;;;1.00;1.00;;;;;;;2.08;100.00;98762.56;6127282;23;20009;-90
2024/03/20 03:11:20;;;;;;;1.00;1.00;;;;;;;2.07;100.00;98761.66;6127011;23;20505;-91
2024/03/20 03:13:46;;;;;;;0.93;0.93;;;;;;;2.16;100.00;98762.25;6126797;23;20014;-90
2024/03/20 03:16:12;;;;;;;1.00;1.00;;;;;;;2.30;100.00;98760.47;6151964;23;20023;-90
2024/03/20 03:18:38;;;;;;;1.00;1.00;;;;;;;2.16;100.00;98758.72;6153100;23;20040;-90
2024/03/20 03:21:07;;;;;;;1.10;1.10;;;;;;;2.11;100.00;98763.69;6152996;23;20014;-91
2024/03/20 03:23:32;;;;;;;0.95;0.95;;;;;;;2.19;100.00;98765.03;6152860;23;20327;-90
2024/03/20 03:25:58;;;;;;;1.10;1.10;;;;;;;2.19;100.00;98770.31;6153377;23;20512;-90
2024/03/20 03:28:23;;;;;;;1.00;1.00;;;;;;;2.10;100.00;98766.19;6129025;23;20071;-91
2024/03/20 03:30:49;;;;;;;1.00;1.00;;;;;;;1.99;100.00;98755.00;6128273;23;20434;-90
2024/03/20 03:33:14;;;;;;;0.90;0.90;;;;;;;1.92;100.00;98760.72;6126819;23;20037;-90
2024/03/20 03:35:39;;;;;;;1.00;1.00;;;;;;;1.85;100.00;98763.75;6153164;23;20097;-91
2024/03/20 03:38:05;;;;;;;0.90;0.90;;;;;;;1.83;100.00;98771.56;6152609;23;20018;-90
2024/03/20 03:40:30;;;;;;;0.90;0.90;;;;;;;1.80;100.00;98766.09;6153649;23;20493;-89
2024/03/20 03:42:56;;;;;;;1.00;1.00;;;;;;;1.74;100.00;98773.59;6153854;23;20013;-90
2024/03/20 03:45:21;;;;;;;1.00;1.00;;;;;;;1.69;100.00;98778.56;6154044;23;20008;-91
2024/03/20 03:47:47;;;;;;;1.00;1.00;;;;;;;1.80;100.00;98779.25;6129421;23;20014;-90
2024/03/20 03:50:12;;;;;;;0.98;0.98;;;;;;;1.79;100.00;98788.84;6158678;23;20029;-91
2024/03/20 03:52:38;;;;;;;0.90;0.90;;;;;;;1.74;100.00;98785.03;6132965;23;20013;-90
2024/03/20 03:55:04;;;;;;;0.90;0.90;;;;;;;1.68;100.00;98776.75;6133019;23;20096;-90
2024/03/20 03:57:30;;;;;;;1.00;1.00;;;;;;;1.92;100.00;98781.75;6152995;23;20096;-91
2024/03/20 03:59:55;;;;;;;1.00;1.00;;;;;;;1.69;100.00;98789.09;6128309;23;20057;-90
2024/03/20 04:02:21;;;;;;;1.00;1.00;;;;;;;1.61;100.00;98784.13;6152989;23;20488;-90
2024/03/20 04:04:48;;;;;;;1.00;1.00;;;;;;;1.63;100.00;98786.06;6127607;23;20466;-90
2024/03/20 04:07:14;;;;;;;1.00;1.00;;;;;;;1.66;100.00;98790.59;6126900;23;20020;-89
2024/03/20 04:09:39;;;;;;;1.00;1.00;;;;;;;1.65;100.00;98788.78;6127610;23;20021;-90
2024/03/20 04:12:05;;;;;;;1.05;1.05;;;;;;;1.71;100.00;98782.19;6151554;23;20015;-90
2024/03/20 04:14:30;;;;;;;1.00;1.00;;;;;;;1.62;100.00;98794.75;6153289;23;20377;-91
2024/03/20 04:16:56;;;;;;;1.00;1.00;;;;;;;1.71;100.00;98786.53;6127683;23;20029;-90
2024/03/20 04:19:21;;;;;;;0.98;0.98;;;;;;;1.82;100.00;98789.84;6152740;23;20017;-91
2024/03/20 04:21:47;;;;;;;1.00;1.00;;;;;;;1.60;100.00;98791.13;6151861;23;20002;-91
2024/03/20 04:24:12;;;;;;;0.90;0.90;;;;;;;1.52;100.00;98785.34;6128346;23;20456;-89
2024/03/20 04:26:37;;;;;;;1.02;1.02;;;;;;;1.49;100.00;98797.41;6152869;23;20409;-90
2024/03/20 04:29:03;;;;;;;1.00;1.00;;;;;;;1.73;100.00;98785.84;6152651;23;20006;-91
2024/03/20 04:31:28;;;;;;;1.00;1.00;;;;;;;1.76;100.00;98785.09;6152913;23;20021;-91
2024/03/20 04:33:54;;;;;;;1.10;1.10;;;;;;;1.75;100.00;98780.66;6151166;23;20005;-92
2024/03/20 04:36:19;;;;;;;1.00;1.00;;;;;;;1.75;100.00;98786.84;6151966;23;20045;-92
2024/03/20 04:38:44;;;;;;;1.10;1.10;;;;;;;1.73;100.00;98785.84;6151203;23;20005;-92
2024/03/20 04:41:11;;;;;;;1.00;1.00;;;;;;;1.74;100.00;98789.38;6151323;23;20017;-92
2024/03/20 04:43:36;;;;;;;1.00;1.00;;;;;;;1.65;100.00;98792.31;6152034;23;20014;-93
2024/03/20 04:46:02;;;;;;;1.02;1.02;;;;;;;1.63;100.00;98783.44;6127852;23;20040;-93
2024/03/20 04:48:27;;;;;;;0.90;0.90;;;;;;;1.61;100.00;98786.75;6152592;23;20211;-92
2024/03/20 04:50:53;;;;;;;1.00;1.00;;;;;;;1.69;100.00;98780.28;6126188;23;20690;-92
2024/03/20 04:53:19;;;;;;;1.00;1.00;;;;;;;1.68;100.00;98779.38;6128868;23;20021;-92
2024/03/20 04:55:45;;;;;;;0.93;0.93;;;;;;;1.50;100.00;98783.44;6127647;23;20078;-92
2024/03/20 04:58:10;;;;;;;0.93;0.93;;;;;;;1.41;100.00;98791.63;6152566;23;20011;-90
2024/03/20 05:00:36;;;;;;;1.00;1.00;;;;;;;1.47;100.00;98785.84;6128154;23;20076;-92
2024/03/20 05:03:02;;;;;;;1.00;1.00;;;;;;;1.59;100.00;98791.03;6153743;23;20017;-91
2024/03/20 05:05:27;;;;;;;1.00;1.00;;;;;;;1.47;100.00;98785.84;6151860;23;20093;-92
2024/03/20 05:07:53;;;;;;;1.00;1.00;;;;;;;1.40;100.00;98789.81;6152641;23;20737;-92
2024/03/20 05:10:18;;;;;;;1.10;1.10;;;;;;;1.57;100.00;98792.63;6127479;23;20036;-91
2024/03/20 05:12:44;;;;;;;1.10;1.10;;;;;;;1.36;100.00;98784.25;6126292;23;20016;-92
2024/03/20 05:15:10;;;;;;;1.08;1.08;;;;;;;1.25;100.00;98794.06;6151842;23;20037;-92
2024/03/20 05:17:35;;;;;;;1.00;1.00;;;;;;;1.36;100.00;98797.41;6127310;23;20021;-93
2024/03/20 05:20:04;;;;;;;0.90;0.90;;;;;;;1.25;100.00;98800.25;6153420;23;20013;-92
2024/03/20 05:22:30;;;;;;;1.00;1.00;;;;;;;1.34;100.00;98793.75;6131368;23;20013;-93
2024/03/20 05:24:56;;;;;;;1.10;1.10;;;;;;;1.34;100.00;98796.38;6157056;23;20011;-91
2024/03/20 05:27:21;;;;;;;0.90;0.90;;;;;;;1.31;100.00;98796.19;6130979;23;20013;-91
2024/03/20 05:29:47;;;;;;;0.93;0.93;;;;;;;1.36;100.00;98798.31;6156314;23;20036;-91
2024/03/20 05:32:12;;;;;;;1.00;1.00;;;;;;;1.42;100.00;98801.34;6153997;23;20025;-91
2024/03/20 05:34:38;;;;;;;1.00;1.00;;;;;;;1.17;100.00;98798.81;6152977;23;20020;-91
2024/03/20 05:37:04;;;;;;;1.00;1.00;;;;;;;1.20;100.00;98800.75;6127507;23;20021;-90
2024/03/20 05:39:30;;;;;;;1.05;1.05;;;;;;;1.42;100.00;98803.97;6154127;23;20009;-91
2024/03/20 05:41:55;;;;;;;1.00;1.00;;;;;;;1.47;100.00;98793.75;6156027;23;20100;-92
2024/03/20 05:44:22;;;;;;;0.93;0.93;;;;;;;1.43;100.00;98799.59;6163916;23;20037;-91
2024/03/20 05:46:52;;;;;;;1.10;1.10;;;;;;;1.38;100.00;98796.69;6134980;23;20021;-91
2024/03/20 05:49:20;;;;;;;1.10;1.10;;;;;;;1.38;100.00;98806.28;6164119;23;20241;-92
2024/03/20 05:51:49;;;;;;;1.00;1.00;;;;;;;1.36;100.00;98810.53;6133872;23;20056;-90
2024/03/20 05:54:16;;;;;;;1.05;1.05;;;;;;;1.38;100.00;98808.91;6159655;23;20080;-92
2024/03/20 05:56:41;;;;;;;1.02;1.02;;;;;;;1.42;100.00;98813.56;6135655;23;20010;-92
2024/03/20 05:59:07;;;;;;;1.00;1.00;;;;;;;1.44;100.00;98814.59;6158884;23;20092;-92
2024/03/20 06:01:33;;;;;;;1.00;1.00;;;;;;;1.58;100.00;98805.84;6162101;23;20063;-92
2024/03/20 06:03:59;;;;;;;1.00;1.00;;;;;;;1.62;100.00;98812.25;6145115;23;20010;-93
2024/03/20 06:06:27;;;;;;;1.00;1.00;;;;;;;1.66;100.00;98815.16;6171424;23;20013;-92
2024/03/20 06:08:53;;;;;;;1.00;1.00;;;;;;;1.79;100.00;98817.78;6166849;23;20053;-92
2024/03/20 06:11:18;;;;;;;0.90;0.90;;;;;;;1.89;100.00;98821.00;6140849;23;20033;-91
2024/03/20 06:13:46;;;;;;;1.00;1.00;;;;;;;1.99;100.00;98818.16;6141541;23;20053;-92
2024/03/20 06:16:12;;;;;;;0.95;0.95;;;;;;;2.08;100.00;98823.09;6149320;23;20021;-91
2024/03/20 06:18:38;;;;;;;1.00;1.00;;;;;;;2.15;100.00;98815.66;6148865;23;20006;-92
2024/03/20 06:21:03;;;;;;;0.90;0.90;;;;;;;2.33;100.00;98823.81;6147893;23;20025;-92
2024/03/20 06:23:29;;;;;;;0.90;0.90;;;;;;;2.46;100.00;98831.69;6172927;23;20028;-91
2024/03/20 06:25:54;;;;;;;1.00;1.00;;;;;;;2.61;100.00;98829.06;6171590;23;20024;-92
2024/03/20 06:28:20;;;;;;;1.00;1.00;;;;;;;2.92;100.00;98823.03;6146225;23;20017;-93
2024/03/20 06:30:45;;;;;;;1.00;1.00;;;;;;;3.34;100.00;98822.94;6145401;23;20113;-92
2024/03/20 06:33:11;;;;;;;0.93;0.93;;;;;;;3.62;100.00;98821.91;6118052;23;20275;-92
2024/03/20 06:35:36;;;;;;;0.88;0.88;;;;;;;4.02;100.00;98822.44;6151821;23;20024;-93
2024/03/20 06:38:03;;;;;;;0.90;0.90;;;;;;;4.53;99.00;98823.50;6154202;23;20017;-92
2024/03/20 06:40:32;;;;;;;1.10;1.10;;;;;;;5.15;98.32;98819.72;6153924;23;20484;-91
2024/03/20 06:43:02;;;;;;;0.90;0.90;;;;;;;5.87;96.45;98815.38;6130967;23;20029;-92
2024/03/20 06:45:39;;;;;;;0.80;0.80;;;;;;;6.30;94.31;98817.50;6130775;23;20017;-91
2024/03/20 06:48:05;;;;;;;0.80;0.80;;;;;;;6.69;91.79;98821.97;6154909;23;20009;-92
2024/03/20 06:50:31;;;;;;;0.80;0.80;;;;;;;7.12;91.99;98823.00;6133148;23;20369;-92
2024/03/20 06:52:59;;;;;;;0.70;0.70;;;;;;;7.67;91.37;98817.41;6154539;23;20009;-93
2024/03/20 06:55:43;;;;;;;0.70;0.70;;;;;;;7.79;90.01;98820.56;6172914;23;20072;-92
2024/03/20 06:58:09;;;;;;;0.60;0.60;;;;;;;8.12;86.33;98814.81;6166265;23;20013;-91
2024/03/20 07:00:36;;;;;;;0.60;0.60;;;;;;;8.82;86.09;98814.94;6155810;23;20021;-91
2024/03/20 07:03:01;;;;;;;0.60;0.60;;;;;;;8.84;85.66;98814.97;6153889;23;20018;-89
2024/03/20 07:05:27;;;;;;;0.60;0.60;;;;;;;9.10;83.66;98818.56;6152924;23;20021;-91
2024/03/20 07:07:52;;;;;;;0.60;0.60;;;;;;;9.53;85.35;98818.34;6154897;23;20068;-92
2024/03/20 07:10:18;;;;;;;0.50;0.50;;;;;;;9.69;80.78;98814.47;6132640;23;20583;-92
2024/03/20 07:12:44;;;;;;;0.50;0.50;;;;;;;9.88;82.57;98814.22;6132050;23;20021;-91
2024/03/20 07:15:11;;;;;;;0.50;0.50;;;;;;;9.83;82.44;98813.16;6152427;23;20025;-90
2024/03/20 07:17:38;;;;;;;0.60;0.60;;;;;;;9.80;80.69;98823.72;6153910;23;20286;-89
2024/03/20 07:20:09;;;;;;;0.50;0.50;;;;;;;10.14;79.47;98831.06;6125851;23;20017;-91
2024/03/20 07:22:38;;;;;;;0.50;0.50;;;;;;;10.61;79.56;98830.78;6151362;23;20100;-91
2024/03/20 07:25:08;;;;;;;0.50;0.50;;;;;;;10.84;78.05;98820.81;6126910;23;20017;-91
2024/03/20 07:27:34;;;;;;;0.40;0.40;;;;;;;11.11;76.95;98820.66;6127586;23;20024;-91
2024/03/20 07:30:00;;;;;;;0.40;0.40;;;;;;;11.16;77.34;98819.97;6126740;23;20016;-90
2024/03/20 07:32:27;;;;;;;0.50;0.50;;;;;;;11.17;74.49;98815.53;6126984;23;20152;-91
2024/03/20 07:34:52;;;;;;;0.40;0.40;;;;;;;11.40;77.41;98814.41;6153210;23;20024;-91
2024/03/20 07:37:18;;;;;;;0.40;0.40;;;;;;;11.17;76.35;98820.88;6152916;23;20010;-90
2024/03/20 07:39:43;;;;;;;0.40;0.40;;;;;;;11.47;77.06;98821.69;6153256;23;20397;-91
2024/03/20 07:42:09;;;;;;;0.40;0.40;;;;;;;11.75;75.82;98825.09;6154275;23;20005;-89
2024/03/20 07:44:34;;;;;;;0.40;0.40;;;;;;;11.77;76.33;98820.69;6128961;23;20060;-87
2024/03/20 07:47:00;;;;;;;0.30;0.30;;;;;;;12.34;74.85;98820.34;6158623;23;20012;-88
2024/03/20 07:49:26;;;;;;;0.32;0.32;;;;;;;13.11;72.79;98814.91;6157078;23;20017;-88
2024/03/20 07:51:52;;;;;;;0.30;0.30;;;;;;;13.41;71.09;98817.31;6158707;23;20014;-88
2024/03/20 07:54:24;;;;;;;0.40;0.40;;;;;;;13.80;69.31;98821.63;6158676;23;20010;-88
2024/03/20 07:56:56;;;;;;;0.30;0.30;;;;;;;13.80;68.45;98817.16;6160077;23;20023;-89
2024/03/20 07:59:23;;;;;;;0.30;0.30;;;;;;;14.65;64.46;98819.44;6162276;23;20037;-88
2024/03/20 08:01:50;;;;;;;0.30;0.30;;;;;;;14.96;62.80;98820.78;6162289;23;20009;-89
2024/03/20 08:04:16;;;;;;;0.20;0.20;;;;;;;15.55;60.50;98817.88;6160103;23;20006;-89
2024/03/20 08:06:41;;;;;;;0.30;0.30;;;;;;;15.71;57.47;98815.38;6155808;23;20621;-87
2024/03/20 08:09:07;;;;;;;0.30;0.30;;;;;;;15.76;57.26;98813.63;6126363;23;20009;-88
2024/03/20 08:11:33;;;;;;;0.30;0.30;;;;;;;15.75;56.43;98812.72;6126812;23;20088;-88
2024/03/20 08:13:59;;;;;;;0.20;0.20;;;;;;;15.88;56.52;98809.28;6157827;23;20017;-89
2024/03/20 08:16:26;;;;;;;0.30;0.30;;;;;;;15.84;57.11;98815.50;6123343;23;20033;-89
2024/03/20 08:18:52;;;;;;;0.20;0.20;;;;;;;16.54;54.46;98799.03;6144960;23;20048;-89
2024/03/20 08:21:18;;;;;;;0.20;0.20;;;;;;;16.58;52.32;98792.78;6120437;23;20014;-89
2024/03/20 08:23:43;;;;;;;0.25;0.25;;;;;;;16.94;52.28;98796.59;6145532;23;20346;-89
2024/03/20 08:26:09;;;;;;;0.20;0.20;;;;;;;17.56;51.18;98798.59;6145462;23;20466;-90
2024/03/20 08:28:35;;;;;;;0.20;0.20;;;;;;;18.18;50.32;98794.22;6144826;23;20017;-88
2024/03/20 08:31:05;;;;;;;0.20;0.20;;;;;;;18.17;50.37;98801.41;6145498;23;20465;-89
2024/03/20 08:33:30;;;;;;;0.10;0.10;;;;;;;18.06;50.66;98805.00;6120046;23;20017;-89
2024/03/20 08:35:58;;;;;;;0.10;0.10;;;;;;;18.34;50.94;98800.50;6120765;23;20018;-88
2024/03/20 08:38:25;;;;;;;0.10;0.10;;;;;;;17.89;51.65;98808.59;6145604;23;20080;-88
2024/03/20 08:40:51;;;;;;;;;;;;;;;18.52;50.22;98796.88;6145584;23;20099;-88
2024/03/20 08:43:18;;;;;;;0.10;0.10;;;;;;;18.67;50.15;98799.53;6147588;23;19987;-90
2024/03/20 08:45:45;;;;;;;0.10;0.10;;;;;;;19.55;48.03;98798.34;6121587;23;20537;-88
2024/03/20 08:48:10;;;;;;;0.10;0.10;;;;;;;20.82;45.15;98789.22;6144877;23;20017;-88
2024/03/20 08:50:39;;;;;;;0.10;0.10;;;;;;;19.86;46.39;98790.06;6146833;23;20315;-87
2024/03/20 08:53:07;;;;;;;0.20;0.20;;;;;;;19.86;46.55;98796.38;6145293;23;20108;-87
2024/03/20 08:55:33;;;;;;;0.10;0.10;;;;;;;20.94;42.54;98777.34;6147123;23;20013;-88
2024/03/20 08:57:59;;;;;;;0.10;0.10;;;;;;;19.94;45.19;98788.19;6145828;23;20036;-87
2024/03/20 09:00:25;;;;;;;0.10;0.10;;;;;;;20.12;44.89;98784.44;6146696;23;20013;-89
2024/03/20 09:02:51;;;;;;;;;;;;;;;20.14;44.62;98775.38;6147681;23;20013;-88
2024/03/20 09:05:17;;;;;;;0.10;0.10;;;;;;;20.57;43.54;98784.97;6147409;23;19919;-89
2024/03/20 09:07:42;;;;;;;0.10;0.10;;;;;;;21.58;42.07;98779.25;6145367;23;20021;-90
2024/03/20 09:10:08;;;;;;;0.10;0.10;;;;;;;21.91;39.43;98776.94;6147696;23;20013;-88
2024/03/20 09:12:33;;;;;;;0.10;0.10;;;;;;;21.72;39.08;98774.50;6147905;23;20017;-91
2024/03/20 09:14:59;;;;;;;0.10;0.10;;;;;;;21.08;40.62;98772.66;6145473;23;20021;-89
2024/03/20 09:17:25;;;;;;;0.10;0.10;;;;;;;20.48;41.90;98767.88;6147672;23;20013;-89
2024/03/20 09:19:51;;;;;;;0.10;0.10;;;;;;;21.27;40.53;98768.78;6147418;23;20006;-89
2024/03/20 09:22:16;;;;;;;0.10;0.10;;;;;;;21.12;40.65;98771.66;6122015;23;20050;-88
2024/03/20 09:24:42;;;;;;;0.10;0.10;;;;;;;21.92;37.95;98762.44;6146645;23;20021;-89
2024/03/20 09:27:07;;;;;;;0.10;0.10;;;;;;;22.36;36.03;98760.81;6145542;23;20013;-90
2024/03/20 09:29:33;;;;;;;0.13;0.13;;;;;;;20.83;37.44;98758.47;6147603;23;20453;-90
2024/03/20 09:31:59;;;;;;;0.10;0.10;;;;;;;20.67;39.50;98767.69;6127113;23;20017;-88
2024/03/20 09:34:26;;;;;;;;;;;;;;;21.71;37.50;98760.97;6122801;23;20053;-89
2024/03/20 09:36:55;;;;;;;0.10;0.10;;;;;;;21.27;38.40;98765.13;6147772;23;20070;-89
2024/03/20 09:39:20;;;;;;;0.10;0.10;;;;;;;21.94;36.65;98755.16;6146834;23;20096;-90
2024/03/20 09:41:46;;;;;;;0.10;0.10;;;;;;;22.63;35.12;98749.44;6144834;23;20037;-92
2024/03/20 09:44:13;;;;;;;0.10;0.10;;;;;;;23.40;32.59;98750.63;6145783;23;20516;-89
2024/03/20 09:46:38;;;;;;;0.10;0.10;;;;;;;23.10;33.47;98760.34;6146445;23;20418;-91
2024/03/20 09:49:04;;;;;;;0.10;0.10;;;;;;;23.50;32.70;98755.81;6145427;23;20017;-89
2024/03/20 09:51:30;;;;;;;0.10;0.10;;;;;;;23.91;30.81;98744.94;6145454;23;20083;-90
2024/03/20 09:53:56;;;;;;;0.10;0.10;;;;;;;19.50;36.49;98759.59;6145774;23;20390;-90
2024/03/20 09:56:27;;;;;;;0.10;0.10;;;;;;;21.55;35.22;98759.38;6145723;23;20732;-88
2024/03/20 09:58:54;;;;;;;0.10;0.10;;;;;;;20.18;36.62;98750.06;6146818;23;20009;-89
2024/03/20 10:01:21;;;;;;;0.10;0.10;;;;;;;21.17;34.07;98756.22;6147085;23;20005;-91
2024/03/20 10:03:53;;;;;;;0.10;0.10;;;;;;;21.96;32.48;98745.16;6145505;23;20024;-90
2024/03/20 10:06:23;;;;;;;0.20;0.20;;;;;;;21.62;32.52;98745.69;6149214;23;20017;-91
2024/03/20 10:08:49;;;;;;;0.20;0.20;;;;;;;21.57;32.68;98739.44;6151021;23;20018;-90
2024/03/20 10:11:15;;;;;;;0.20;0.20;;;;;;;22.35;32.22;98731.84;6146365;23;20005;-90
2024/03/20 10:13:42;;;;;;;0.20;0.20;;;;;;;21.97;32.09;98736.09;6147660;23;20018;-91
2024/03/20 10:16:09;;;;;;;0.20;0.20;;;;;;;21.95;32.87;98732.50;6162616;23;20010;-87
2024/03/20 10:18:35;;;;;;;;;;;;;;;22.10;32.22;98736.78;6162784;23;20013;-90
2024/03/20 10:21:05;;;;;;;0.20;0.20;;;;;;;21.16;33.40;98730.03;6124388;23;19912;-90
2024/03/20 10:23:36;;;;;;;0.20;0.20;;;;;;;20.06;34.58;98736.63;6148894;23;20013;-90
2024/03/20 10:26:02;;;;;;;0.20;0.20;;;;;;;22.99;31.63;98730.63;6150664;23;20013;-89
2024/03/20 10:28:30;;;;;;;0.10;0.10;;;;;;;23.24;30.28;98721.03;6151423;23;20430;-90
2024/03/20 10:31:05;;;;;;;0.10;0.10;;;;;;;23.90;29.63;98724.06;6150234;23;20044;-88
2024/03/20 10:33:35;;;;;;;0.10;0.10;;;;;;;22.68;31.17;98730.31;6147335;23;20021;-87
2024/03/20 10:36:02;;;;;;;0.10;0.10;;;;;;;22.82;31.69;98720.06;6149641;23;20010;-89
2024/03/20 10:38:29;;;;;;;0.10;0.10;;;;;;;22.80;31.58;98724.63;6128715;23;20517;-90
2024/03/20 10:40:54;;;;;;;;;;;;;;;23.89;29.42;98723.16;6104556;23;20026;-89
2024/03/20 10:43:22;;;;;;;0.20;0.20;;;;;;;24.25;28.61;98718.63;6155693;23;19953;-89
2024/03/20 10:45:55;;;;;;;0.10;0.10;;;;;;;25.11;27.88;98716.28;6132118;23;20016;-90
2024/03/20 10:48:22;;;;;;;0.10;0.10;;;;;;;25.31;27.36;98712.97;6157199;23;20013;-89
2024/03/20 10:50:50;;;;;;;0.10;0.10;;;;;;;24.18;28.73;98713.34;6157747;23;20016;-89
2024/03/20 10:53:17;;;;;;;0.10;0.10;;;;;;;25.09;27.74;98709.97;6158919;23;20191;-89
2024/03/20 10:55:44;;;;;;;0.10;0.10;;;;;;;24.99;27.34;98711.16;6159599;23;20041;-90
2024/03/20 10:58:15;;;;;;;0.10;0.10;;;;;;;24.66;27.64;98711.16;6160276;23;20032;-89
2024/03/20 11:00:52;;;;;;;0.13;0.13;;;;;;;24.63;28.15;98718.56;6158862;23;20583;-89
2024/03/20 11:03:47;;;;;;;0.15;0.15;;;;;;;25.69;26.48;98703.56;6162005;23;20020;-89
2024/03/20 11:06:28;;;;;;;0.10;0.10;;;;;;;24.94;26.73;98707.66;6154937;23;20019;-88
2024/03/20 11:09:22;;;;;;;0.10;0.10;;;;;;;26.86;26.21;98700.44;6159471;23;20092;-87
2024/03/20 11:11:49;;;;;;;0.10;0.10;;;;;;;26.41;25.10;98697.53;6163633;23;20048;-89
2024/03/20 11:14:24;;;;;;;0.10;0.10;;;;;;;26.80;25.01;98692.47;6160790;23;20010;-91
2024/03/20 11:16:52;;;;;;;0.10;0.10;;;;;;;24.00;29.66;98706.53;6158870;23;20024;-87
2024/03/20 11:19:20;;;;;;;0.10;0.10;;;;;;;25.98;26.46;98699.00;6159455;23;20013;-90
2024/03/20 11:21:52;;;;;;;0.10;0.10;;;;;;;25.22;27.50;98695.00;6159865;23;20500;-89
2024/03/20 11:24:20;;;;;;;0.10;0.10;;;;;;;24.59;27.74;98695.91;6179831;23;20025;-92
2024/03/20 11:26:48;;;;;;;0.10;0.10;;;;;;;23.34;29.48;98699.03;6134001;23;20021;-90
2024/03/20 11:29:16;;;;;;;0.10;0.10;;;;;;;23.91;29.09;98695.91;6160208;23;20021;-89
2024/03/20 11:31:56;;;;;;;0.10;0.10;;;;;;;25.19;28.33;98696.94;6163646;23;20093;-90
2024/03/20 11:34:22;;;;;;;0.10;0.10;;;;;;;24.45;28.45;98693.56;6163600;23;20017;-86